createdAt,value
2022-08-28T00:05:49.405Z,5.53
2022-08-28T00:13:54.868Z,6.15
2022-08-28T00:22:04.988Z,5.90
2022-08-28T00:30:11.656Z,5.82
2022-08-28T00:38:21.758Z,5.90
2022-08-28T00:46:27.676Z,5.65
2022-08-28T00:54:40.113Z,5.45
2022-08-28T01:02:45.602Z,4.90
2022-08-28T01:10:57.147Z,5.63
2022-08-28T01:19:03.320Z,5.10
2022-08-28T01:27:11.366Z,6.03
2022-08-28T01:35:20.455Z,5.28
2022-08-28T01:43:31.581Z,5.88
2022-08-28T01:51:38.056Z,5.65
2022-08-28T01:59:46.458Z,5.53
2022-08-28T02:07:52.279Z,5.15
2022-08-28T02:16:00.997Z,5.50
2022-08-28T02:24:06.692Z,5.53
2022-08-28T02:32:15.023Z,5.50
2022-08-28T02:40:25.598Z,5.10
2022-08-28T02:48:37.916Z,6.20
2022-08-28T02:56:43.848Z,5.53
2022-08-28T03:04:51.946Z,5.45
2022-08-28T03:12:57.394Z,5.47
2022-08-28T03:21:05.750Z,5.40
2022-08-28T03:29:11.173Z,5.90
2022-08-28T03:37:19.214Z,6.57
2022-08-28T03:45:24.956Z,6.38
2022-08-28T03:53:34.662Z,5.68
2022-08-28T04:01:42.491Z,6.35
2022-08-28T04:09:50.659Z,5.88
2022-08-28T04:17:56.399Z,6.05
2022-08-28T04:26:06.850Z,6.30
2022-08-28T04:34:12.474Z,6.35
2022-08-28T04:42:20.613Z,6.90
2022-08-28T04:50:25.988Z,5.85
2022-08-28T04:58:34.497Z,5.90
2022-08-28T05:06:43.530Z,5.43
2022-08-28T05:14:51.886Z,4.80
2022-08-28T05:22:57.547Z,5.60
2022-08-28T05:31:16.252Z,5.07
2022-08-28T05:39:21.750Z,5.75
2022-08-28T05:47:32.807Z,6.20
2022-08-28T05:55:38.207Z,5.13
2022-08-28T06:03:48.947Z,5.47
2022-08-28T06:11:56.181Z,5.32
2022-08-28T06:20:05.750Z,5.25
2022-08-28T06:28:11.453Z,4.90
2022-08-28T06:36:19.821Z,5.18
2022-08-28T06:44:26.182Z,4.82
2022-08-28T06:52:34.652Z,5.18
2022-08-28T07:00:43.598Z,5.00
2022-08-28T07:08:52.755Z,4.82
2022-08-28T07:16:58.143Z,5.22
2022-08-28T07:25:06.879Z,4.28
2022-08-28T07:33:12.324Z,4.47
2022-08-28T07:41:24.284Z,4.93
2022-08-28T07:49:29.690Z,4.13
2022-08-28T07:57:38.033Z,4.80
2022-08-28T08:05:44.343Z,4.00
2022-08-28T08:13:52.954Z,4.38
2022-08-28T08:21:58.742Z,5.30
2022-08-28T08:30:07.583Z,4.65
2022-08-28T08:38:13.062Z,4.75
2022-08-28T08:46:22.428Z,4.68
2022-08-28T08:54:28.037Z,4.43
2022-08-28T09:02:41.702Z,5.35
2022-08-28T09:10:56.009Z,5.22
2022-08-28T09:19:05.514Z,5.30
2022-08-28T09:27:24.359Z,5.70
2022-08-28T09:35:34.727Z,5.25
2022-08-28T09:43:41.769Z,6.10
2022-08-28T09:51:50.848Z,4.88
2022-08-28T09:59:57.323Z,5.15
2022-08-28T10:08:13.096Z,4.35
2022-08-28T10:16:32.029Z,4.45
2022-08-28T10:24:54.823Z,4.00
2022-08-28T10:33:22.678Z,4.03
2022-08-28T10:41:40.029Z,4.20
2022-08-28T10:49:48.147Z,4.00
2022-08-28T10:58:00.738Z,3.83
2022-08-28T11:06:11.805Z,3.45
2022-08-28T11:14:31.283Z,4.50
2022-08-28T11:22:41.462Z,3.70
2022-08-28T11:30:53.156Z,3.75
2022-08-28T11:39:08.883Z,3.25
2022-08-28T11:47:52.443Z,3.50
2022-08-28T11:56:37.498Z,3.08
2022-08-28T12:04:45.798Z,3.75
2022-08-28T12:12:59.597Z,3.70
2022-08-28T12:21:08.026Z,3.92
2022-08-28T12:29:31.707Z,3.50
2022-08-28T12:37:51.985Z,3.33
2022-08-28T12:46:05.581Z,3.50
2022-08-28T12:54:24.625Z,3.22
2022-08-28T13:02:36.202Z,3.53
2022-08-28T13:10:52.272Z,3.20
2022-08-28T13:19:15.748Z,4.07
2022-08-28T13:27:26.251Z,3.88
2022-08-28T13:35:42.189Z,4.03
2022-08-28T13:43:49.837Z,3.70
2022-08-28T13:51:59.110Z,3.90
2022-08-28T14:00:04.658Z,3.97
2022-08-28T14:08:16.009Z,4.40
2022-08-28T14:16:21.518Z,3.70
2022-08-28T14:24:29.773Z,4.00
2022-08-28T14:32:35.379Z,4.55
2022-08-28T14:40:46.138Z,4.63
2022-08-28T14:48:52.085Z,5.00
2022-08-28T14:57:00.860Z,4.28
2022-08-28T15:05:06.468Z,5.10
2022-08-28T15:13:15.321Z,4.65
2022-08-28T15:21:23.098Z,4.28
2022-08-28T15:29:31.934Z,4.45
2022-08-28T15:37:37.317Z,5.18
2022-08-28T15:45:45.526Z,4.70
2022-08-28T15:53:51.115Z,4.70
2022-08-28T16:01:59.658Z,5.03
2022-08-28T16:10:07.185Z,5.00
2022-08-28T16:18:16.043Z,4.50
2022-08-28T16:26:21.506Z,4.75
2022-08-28T16:34:31.641Z,4.80
2022-08-28T16:42:37.067Z,5.40
2022-08-28T16:50:46.977Z,4.57
2022-08-28T16:58:53.018Z,4.75
2022-08-28T17:07:01.455Z,4.55
2022-08-28T17:15:07.334Z,5.47
2022-08-28T17:23:15.367Z,6.03
2022-08-28T17:31:21.415Z,6.43
2022-08-28T17:39:29.631Z,8.15
2022-08-28T17:47:35.268Z,10.65
2022-08-28T17:55:43.304Z,7.45
2022-08-28T18:03:53.560Z,7.75
2022-08-28T18:12:01.741Z,7.32
2022-08-28T18:20:09.531Z,6.50
2022-08-28T18:28:22.338Z,6.28
2022-08-28T18:36:27.997Z,6.10
2022-08-28T18:44:39.122Z,7.93
2022-08-28T18:52:44.782Z,8.13
2022-08-28T19:00:53.532Z,7.80
2022-08-28T19:09:00.427Z,7.75
2022-08-28T19:17:09.574Z,7.82
2022-08-28T19:25:28.876Z,7.50
2022-08-28T19:33:37.257Z,7.85
2022-08-28T19:41:43.770Z,8.05
2022-08-28T19:49:55.213Z,9.10
2022-08-28T19:58:05.371Z,10.27
2022-08-28T20:06:13.546Z,10.05
2022-08-28T20:14:20.972Z,9.13
2022-08-28T20:22:29.054Z,7.57
2022-08-28T20:30:34.758Z,6.95
2022-08-28T20:38:43.490Z,6.45
2022-08-28T20:46:51.610Z,6.15
2022-08-28T20:55:00.159Z,6.65
2022-08-28T21:03:05.733Z,7.35
2022-08-28T21:11:13.748Z,7.45
2022-08-28T21:19:19.884Z,6.40
2022-08-28T21:27:28.503Z,6.30
2022-08-28T21:35:33.975Z,7.40
2022-08-28T21:43:42.262Z,6.95
2022-08-28T21:51:47.647Z,7.32
2022-08-28T21:59:55.637Z,6.50
2022-08-28T22:08:01.113Z,6.88
2022-08-28T22:16:10.209Z,7.25
2022-08-28T22:24:16.578Z,7.65
2022-08-28T22:32:26.904Z,7.65
2022-08-28T22:40:33.219Z,7.30
2022-08-28T22:48:41.352Z,6.97
2022-08-28T22:56:46.818Z,7.40
2022-08-28T23:04:54.844Z,7.05
2022-08-28T23:13:00.319Z,7.32
2022-08-28T23:21:10.284Z,6.93
2022-08-28T23:29:16.166Z,8.27
2022-08-28T23:37:24.151Z,7.95
2022-08-28T23:45:30.033Z,7.22
2022-08-28T23:53:38.220Z,6.50
